Latest Weather Observations for Canterbury

IDN60801

Issued at 8:52 pm EST Wednesday 5 August 2020 (issued every 10 minutes, with the page automatically refreshed every 10 minutes)

About weather observations | Map of weather stations | Latest weather observations for NSW | Other Formats
Station Details ID: 066194 Name: CANTERBURY RACECOURSE AWS Lat: -33.91 Lon: 151.11 Height: 3.0 m
Data from the previous 72 hours. | See also: Recent months at Canterbury
Date/Time
EST
Temp
°C
App
Temp
°C
Dew
Point
°C
Rel
Hum
%
Delta-T
°C
Wind Press
QNH
hPa
Press
MSL
hPa
Rain since
9am
mm
Dir  Spd
km/h
Gust
km/h
Spd
kts
Gust
kts
05/08:30pm 11.2 5.4 -4.9 32 5.8 WSW 17 28 9 15 - - 0.0
05/08:00pm 10.4 6.4 -5.2 33 5.6 W 7 11 4 6 - - 0.0
05/07:30pm 10.8 6.5 -5.2 32 5.7 WSW 9 15 5 8 - - 0.0
05/07:00pm 11.8 7.4 -5.6 29 6.3 WSW 9 19 5 10 - - 0.0
05/06:30pm 12.1 7.4 -5.4 29 6.3 WSW 11 19 6 10 - - 0.0
05/06:00pm 12.8 8.4 -6.2 26 6.8 SW 9 17 5 9 - - 0.0
05/05:30pm 13.8 8.5 -6.9 23 7.4 WSW 13 20 7 11 - - 0.0
05/05:00pm 14.7 8.1 -7.4 21 7.9 WSW 20 35 11 19 - - 0.0
05/04:30pm 15.9 9.4 -7.7 19 8.5 SW 19 35 10 19 - - 0.0
05/04:00pm 16.6 10.1 -8.5 17 9.0 WSW 19 32 10 17 - - 0.0
05/03:30pm 17.3 9.7 -9.5 15 9.5 W 24 39 13 21 - - 0.0
05/03:00pm 17.3 9.9 -7.9 17 9.2 W 24 44 13 24 - - 0.0
05/02:30pm 17.2 10.4 -5.3 21 8.7 W 22 35 12 19 - - 0.0
05/02:00pm 16.9 9.8 -4.3 23 8.3 WNW 24 37 13 20 - - 0.0
05/01:30pm 16.8 10.7 -3.9 24 8.2 WNW 19 33 10 18 - - 0.0
05/01:00pm 15.7 10.9 -2.7 28 7.4 W 13 24 7 13 - - 0.0
05/12:30pm 14.8 9.2 -3.0 29 7.0 W 17 28 9 15 - - 0.0
05/12:00pm 14.5 8.9 -3.3 29 7.0 W 17 22 9 12 - - 0.0
05/11:30am 13.6 8.0 -3.2 31 6.5 WNW 17 26 9 14 - - 0.0
05/11:00am 13.0 7.0 -3.3 32 6.3 W 19 39 10 21 - - 0.0
05/10:30am 12.2 6.7 -2.4 36 5.7 NW 17 28 9 15 - - 0.0
05/10:00am 11.8 6.3 -2.0 38 5.4 NW 17 24 9 13 - - 0.0
05/09:30am 10.7 5.1 -3.0 38 5.2 NW 17 30 9 16 - - 0.0
05/09:00am 10.1 4.2 -2.2 42 4.7 NW 19 30 10 16 - - 0.0
05/08:30am 9.2 4.2 -1.5 47 4.1 NW 15 24 8 13 - - 0.0
05/08:00am 8.0 3.0 -1.5 51 3.6 NNW 15 24 8 13 - - 0.0
05/07:30am 6.7 2.3 -2.4 52 3.3 NNW 11 19 6 10 - - 0.0
05/07:00am 5.3 0.9 -2.8 56 2.9 NNW 11 17 6 9 - - 0.0
05/06:30am 4.4 0.7 -2.9 59 2.6 NNW 7 11 4 6 - - 0.0
05/06:00am 5.0 1.3 -2.8 57 2.8 WNW 7 11 4 6 - - 0.0
05/05:30am 5.7 1.6 -3.1 53 3.1 NW 9 15 5 8 - - 0.0
05/05:00am 5.3 1.2 -3.0 55 2.9 WNW 9 13 5 7 - - 0.0
05/04:30am 6.1 1.6 -3.0 52 3.2 NW 11 19 6 10 - - 0.0
05/04:00am 6.9 2.0 -3.1 49 3.6 WNW 13 22 7 12 - - 0.0
05/03:30am 7.4 1.4 -3.2 47 3.8 WNW 19 28 10 15 - - 0.0
05/03:00am 7.5 2.2 -3.4 46 3.9 WNW 15 24 8 13 - - 0.0
05/02:30am 7.9 2.2 -3.6 44 4.1 W 17 28 9 15 - - 0.0
05/02:00am 8.3 2.6 -3.8 42 4.3 W 17 28 9 15 - - 0.0
05/01:30am 8.8 2.5 -4.0 40 4.6 WSW 20 35 11 19 - - 0.0
05/01:00am 8.6 2.8 -4.2 40 4.6 WSW 17 32 9 17 - - 0.0
05/12:30am 8.5 3.5 -4.3 40 4.6 WSW 13 20 7 11 - - 0.0
05/12:00am 9.2 3.4 -4.4 38 4.9 WSW 17 24 9 13 - - 0.0
 
Date/Time
EST
Temp
°C
App
Temp
°C
Dew
Point
°C
Rel
Hum
%
Delta-T
°C
Wind Press
QNH
hPa
Press
MSL
hPa
Rain since
9am
mm
Dir  Spd
km/h
Gust
km/h
Spd
kts
Gust
kts
04/11:30pm 9.5 4.1 -4.8 36 5.1 SW 15 24 8 13 - - 0.0
04/11:00pm 10.2 3.8 -4.6 35 5.3 SW 20 32 11 17 - - 0.0
04/10:30pm 10.6 4.5 -4.2 35 5.4 SW 19 33 10 18 - - 0.0
04/10:00pm 11.3 5.0 -4.0 34 5.7 SW 20 30 11 16 - - 0.0
04/09:30pm 11.9 5.9 -3.4 34 5.8 SW 19 24 10 13 - - 0.0
04/09:00pm 12.6 7.7 -3.2 33 6.1 SW 13 22 7 12 - - 0.0
04/08:30pm 12.9 8.9 0.6 43 5.2 SW 11 20 6 11 - - 0.0
04/08:00pm 14.0 9.4 1.3 42 5.5 SW 15 24 8 13 - - 0.0
04/07:30pm 14.6 11.4 2.8 45 5.3 WSW 9 17 5 9 - - 0.0
04/07:00pm 15.7 10.9 2.5 41 5.9 W 17 26 9 14 - - 0.0
04/06:30pm 16.2 12.1 2.2 39 6.3 WNW 13 20 7 11 - - 0.0
04/06:00pm 17.2 12.2 1.6 35 6.9 W 17 32 9 17 - - 0.0
04/05:30pm 17.9 12.9 1.4 33 7.4 WNW 17 26 9 14 - - 0.0
04/05:00pm 19.0 13.6 1.1 30 8.0 WNW 19 30 10 16 - - 0.0
04/04:30pm 20.0 14.4 1.4 29 8.4 WNW 20 32 11 17 - - 0.0
04/04:00pm 20.9 15.2 0.7 26 9.1 W 20 32 11 17 - - 0.0
04/03:30pm 21.4 14.6 1.1 26 9.3 W 26 43 14 23 - - 0.0
04/03:13pm 21.4 14.6 0.6 25 9.4 W 26 43 14 23 - - 0.0
04/03:00pm 20.3 16.4 3.5 33 8.0 WNW 13 24 7 13 - - 0.0
04/02:30pm 20.1 15.4 2.9 32 8.1 NW 17 33 9 18 - - 0.0
04/02:00pm 20.3 15.0 1.7 29 8.5 NW 19 30 10 16 - - 0.0
04/01:30pm 20.2 15.4 2.5 31 8.2 NW 17 30 9 16 - - 0.0
04/01:00pm 20.0 14.7 2.8 32 8.0 WNW 20 30 11 16 - - 0.0
04/12:30pm 19.2 14.1 3.0 34 7.5 NW 19 30 10 16 - - 0.0
04/12:00pm 19.6 14.9 3.3 34 7.7 NNW 17 28 9 15 - - 0.0
04/11:30am 19.1 14.4 2.9 34 7.5 NW 17 24 9 13 - - 0.0
04/11:00am 18.6 13.7 2.0 33 7.5 NNW 17 24 9 13 - - 0.0
04/10:30am 18.2 13.7 2.1 34 7.3 NNW 15 22 8 12 - - 0.0
04/10:00am 17.6 13.7 3.5 39 6.6 NNW 13 20 7 11 - - 0.0
04/09:30am 15.8 12.5 4.8 48 5.2 NNW 11 17 6 9 - - 0.0
04/09:00am 14.0 11.6 4.3 52 4.5 NNW 6 11 3 6 - - 0.0
04/08:30am 10.7 8.5 6.1 73 2.1 NNW 7 11 4 6 - - 0.0
04/08:00am 7.0 6.3 6.9 99 0.0 CALM 0 0 0 0 - - 0.0
04/07:30am 4.3 3.0 4.0 98 0.1 CALM 0 0 0 0 - - 0.0
04/07:00am 3.6 2.1 3.0 96 0.2 CALM 0 0 0 0 - - 0.0
04/06:30am 4.1 2.7 3.5 96 0.2 CALM 0 0 0 0 - - 0.0
04/06:00am 4.6 2.9 3.9 95 0.3 WNW 2 6 1 3 - - 0.0
04/05:30am 4.1 2.6 3.2 94 0.4 CALM 0 0 0 0 - - 0.0
04/05:00am 4.8 3.5 3.9 94 0.4 CALM 0 0 0 0 - - 0.0
04/04:30am 5.3 3.7 4.3 93 0.4 NNW 2 6 1 3 - - 0.0
04/04:00am 5.3 4.0 4.3 93 0.4 CALM 0 0 0 0 - - 0.0
04/03:30am 5.9 4.6 4.2 89 0.7 CALM 0 0 0 0 - - 0.0
04/03:00am 7.0 5.6 5.6 91 0.6 NNW 2 9 1 5 - - 0.0
04/02:30am 6.1 3.8 4.9 92 0.5 NNW 6 7 3 4 - - 0.0
04/02:00am 6.2 5.0 4.8 91 0.6 CALM 0 0 0 0 - - 0.0
04/01:30am 6.3 4.7 4.3 87 0.9 NNW 2 6 1 3 - - 0.0
04/01:00am 7.4 6.4 5.5 88 0.8 CALM 0 0 0 0 - - 0.0
04/12:30am 8.0 7.1 6.0 87 0.9 CALM 0 0 0 0 - - 0.0
04/12:00am 8.4 7.6 6.4 87 0.9 CALM 0 0 0 0 - - 0.0
 
Date/Time
EST
Temp
°C
App
Temp
°C
Dew
Point
°C
Rel
Hum
%
Delta-T
°C
Wind Press
QNH
hPa
Press
MSL
hPa
Rain since
9am
mm
Dir  Spd
km/h
Gust
km/h
Spd
kts
Gust
kts
03/11:30pm 8.6 7.7 5.9 83 1.2 CALM 0 0 0 0 - - 0.0
03/11:00pm 8.7 8.0 6.8 88 0.9 CALM 0 0 0 0 - - 0.0
03/10:30pm 8.8 8.0 6.4 85 1.1 CALM 0 0 0 0 - - 0.0
03/10:00pm 8.4 7.5 6.2 86 1.0 CALM 0 0 0 0 - - 0.0
03/09:30pm 8.7 7.8 6.0 83 1.2 CALM 0 0 0 0 - - 0.0
03/09:00pm 9.5 8.6 5.9 78 1.6 CALM 0 0 0 0 - - 0.0
03/08:30pm 9.7 8.7 5.7 76 1.8 CALM 0 0 0 0 - - 0.0
03/08:00pm 10.6 9.8 6.7 77 1.8 CALM 0 0 0 0 - - 0.0
03/07:30pm 11.4 10.8 7.3 76 2.0 CALM 0 0 0 0 - - 0.0
03/07:00pm 12.4 12.0 8.3 76 2.0 CALM 0 0 0 0 - - 0.0
03/06:30pm 12.9 12.2 7.1 68 2.8 CALM 0 0 0 0 - - 0.0
03/06:00pm 13.1 12.0 5.3 59 3.6 CALM 0 0 0 0 - - 0.0
03/05:30pm 15.0 13.9 5.2 52 4.6 CALM 0 0 0 0 - - 0.0
03/05:00pm 17.9 16.2 3.8 39 6.6 NNW 2 6 1 3 - - 0.0
03/04:30pm 20.2 17.1 1.6 29 8.5 NW 7 13 4 7 - - 0.0
03/04:00pm 20.9 17.4 1.2 27 9.0 NW 9 13 5 7 - - 0.0
03/03:30pm 21.0 17.3 -0.3 24 9.4 NW 9 13 5 7 - - 0.0
03/03:00pm 20.3 17.0 2.6 31 8.2 NNW 9 15 5 8 - - 0.0
03/02:30pm 20.1 16.0 -0.5 25 9.0 NNW 11 17 6 9 - - 0.0
03/02:00pm 20.0 16.1 1.0 28 8.6 NW 11 17 6 9 - - 0.0
03/01:30pm 20.4 16.7 2.3 30 8.4 WNW 11 17 6 9 - - 0.0
03/01:00pm 19.7 16.3 1.7 30 8.2 NW 9 15 5 8 - - 0.0
03/12:30pm 18.1 14.6 3.6 38 6.8 NW 11 17 6 9 - - 0.0
03/12:00pm 17.1 14.5 6.0 48 5.4 NW 9 15 5 8 - - 0.0
03/11:30am 16.4 14.2 7.9 57 4.3 NW 9 15 5 8 - - 0.0
03/11:00am 14.7 11.9 6.8 59 3.8 NW 11 15 6 8 - - 0.0
03/10:30am 14.1 11.6 6.7 61 3.6 WNW 9 15 5 8 - - 0.0
03/10:00am 13.0 10.2 6.8 66 3.0 NW 11 15 6 8 - - 0.0
03/09:30am 11.3 8.6 5.4 67 2.7 WNW 9 15 5 8 - - 0.0
03/09:00am 10.1 7.7 7.0 81 1.5 NW 9 13 5 7 - - 0.0
03/08:30am 8.4 6.2 8.0 97 0.2 WNW 9 15 5 8 - - 0.0
03/08:00am 7.2 5.2 7.2 100 0.0 NNW 7 9 4 5 - - 0.0
03/07:30am 6.0 4.3 5.9 99 0.0 NNW 4 6 2 3 - - 0.0
03/07:01am 5.4 3.2 5.3 99 0.0 NNW 6 7 3 4 - - 0.0
03/07:00am 5.5 3.3 5.4 99 0.0 NNW 6 7 3 4 - - 0.0
03/06:30am 5.5 3.3 5.4 99 0.0 NNW 6 7 3 4 - - 0.0
03/06:00am 5.7 3.6 5.6 99 0.0 NNE 6 7 3 4 - - 0.0
03/05:30am 3.8 2.4 3.7 99 0.0 CALM 0 0 0 0 - - 0.0
03/05:00am 4.9 3.7 4.8 99 0.0 CALM 0 0 0 0 - - 0.0
03/04:30am 4.8 3.6 4.7 99 0.0 CALM 0 0 0 0 - - 0.0
03/04:00am 4.0 2.7 3.9 99 0.0 CALM 0 0 0 0 - - 0.0
03/03:30am 5.2 4.1 5.1 99 0.0 CALM 0 0 0 0 - - 0.0
03/03:00am 5.6 4.6 5.5 99 0.0 CALM 0 0 0 0 - - 0.0
03/02:30am 5.1 4.0 5.0 99 0.0 CALM 0 0 0 0 - - 0.0
03/02:00am 6.0 5.1 5.9 99 0.0 CALM 0 0 0 0 - - 0.0
03/01:30am 6.6 5.8 6.5 99 0.0 CALM 0 0 0 0 - - 0.0
03/01:00am 6.5 5.7 6.4 99 0.0 CALM 0 0 0 0 - - 0.0
03/12:30am 6.3 5.4 6.2 99 0.0 CALM 0 0 0 0 - - 0.0
03/12:00am 6.6 5.8 6.5 99 0.0 CALM 0 0 0 0 - - 0.0
 
Date/Time
EST
Temp
°C
App
Temp
°C
Dew
Point
°C
Rel
Hum
%
Delta-T
°C
Wind Press
QNH
hPa
Press
MSL
hPa
Rain since
9am
mm
Dir  Spd
km/h
Gust
km/h
Spd
kts
Gust
kts
02/11:56pm 6.9 6.2 6.8 99 0.0 CALM 0 0 0 0 - - 0.0
02/11:55pm 6.9 6.2 6.8 99 0.0 CALM 0 0 0 0 - - 0.0
02/11:30pm 7.0 6.3 6.9 99 0.0 CALM 0 0 0 0 - - 0.0
02/11:00pm 7.2 6.5 7.1 99 0.0 CALM 0 0 0 0 - - 0.0
02/10:30pm 7.7 7.1 7.6 99 0.0 CALM 0 0 0 0 - - 0.0
02/10:00pm 8.1 7.6 8.0 99 0.0 CALM 0 0 0 0 - - 0.0
02/09:30pm 8.6 8.2 8.2 97 0.2 CALM 0 0 0 0 - - 0.0
02/09:14pm 8.5 8.0 7.7 95 0.4 CALM 0 0 0 0 - - 0.0
02/09:00pm 8.7 8.2 7.9 95 0.4 CALM 0 0 0 0 - - 0.0

Other formats

Comma delimited format used in spreadsheet applications
http://www.bom.gov.au/fwo/IDN60801/IDN60801.94766.axf

JavaScript Object Notation format (JSON) in row-major order
http://www.bom.gov.au/fwo/IDN60801/IDN60801.94766.json

Data quality

Most of these data are generated automatically and are frequently updated. Quality checks on data are not normally performed. It is possible for incorrect values to appear. Refer to information at About Latest Weather Observations and please check the disclaimer before using these data.